createdAt,value
2023-02-16T00:00:52.680Z,7.97
2023-02-16T00:01:59.893Z,7.98
2023-02-16T00:02:52.638Z,7.98
2023-02-16T00:03:52.678Z,8.06
2023-02-16T00:04:52.626Z,7.97
2023-02-16T00:05:52.622Z,8.05
2023-02-16T00:06:52.614Z,8.05
2023-02-16T00:07:52.595Z,8.01
2023-02-16T00:08:52.588Z,8.01
2023-02-16T00:09:52.564Z,7.97
2023-02-16T00:10:52.566Z,7.91
2023-02-16T00:11:52.560Z,7.93
2023-02-16T00:12:52.533Z,7.87
2023-02-16T00:13:52.529Z,7.93
2023-02-16T00:14:52.499Z,7.83
2023-02-16T00:15:52.528Z,7.93
2023-02-16T00:16:52.498Z,7.88
2023-02-16T00:17:52.502Z,7.83
2023-02-16T00:18:52.493Z,7.88
2023-02-16T00:19:52.449Z,7.90
2023-02-16T00:20:52.436Z,7.85
2023-02-16T00:21:52.441Z,7.79
2023-02-16T00:22:52.411Z,7.79
2023-02-16T00:23:52.419Z,7.80
2023-02-16T00:24:52.391Z,7.82
2023-02-16T00:25:52.411Z,7.79
2023-02-16T00:26:52.384Z,7.70
2023-02-16T00:27:52.376Z,7.82
2023-02-16T00:28:52.348Z,7.82
2023-02-16T00:29:52.407Z,7.73
2023-02-16T00:30:52.421Z,7.73
2023-02-16T00:31:52.450Z,7.83
2023-02-16T00:32:52.299Z,7.72
2023-02-16T00:33:52.418Z,7.82
2023-02-16T00:34:52.287Z,7.85
2023-02-16T00:35:52.300Z,7.82
2023-02-16T00:36:52.264Z,7.80
2023-02-16T00:37:52.245Z,7.77
2023-02-16T00:38:52.232Z,7.77
2023-02-16T00:39:52.231Z,7.66
2023-02-16T00:40:52.225Z,7.77
2023-02-16T00:41:52.212Z,7.77
2023-02-16T00:42:52.195Z,7.73
2023-02-16T00:43:52.182Z,7.67
2023-02-16T00:44:52.166Z,7.69
2023-02-16T00:45:52.202Z,7.69
2023-02-16T00:46:52.156Z,7.69
2023-02-16T00:47:52.145Z,7.69
2023-02-16T00:48:52.132Z,7.70
2023-02-16T00:49:52.193Z,7.72
2023-02-16T00:50:52.115Z,7.58
2023-02-16T00:51:52.096Z,7.67
2023-02-16T00:52:52.153Z,7.60
2023-02-16T00:53:52.087Z,7.67
2023-02-16T00:54:52.072Z,7.54
2023-02-16T00:55:52.039Z,7.54
2023-02-16T00:56:52.044Z,7.66
2023-02-16T00:57:52.054Z,7.57
2023-02-16T00:58:52.011Z,7.61
2023-02-16T00:59:52.005Z,7.63
2023-02-16T01:00:52.007Z,7.61
2023-02-16T01:01:52.099Z,7.50
2023-02-16T01:02:51.958Z,7.53
2023-02-16T01:03:51.978Z,7.51
2023-02-16T01:04:52.026Z,7.50
2023-02-16T01:05:51.950Z,7.54
2023-02-16T01:06:51.917Z,7.50
2023-02-16T01:07:51.918Z,7.43
2023-02-16T01:08:51.906Z,7.47
2023-02-16T01:09:51.910Z,7.51
2023-02-16T01:10:51.878Z,7.47
2023-02-16T01:11:51.856Z,7.48
2023-02-16T01:12:51.843Z,7.47
2023-02-16T01:13:51.872Z,7.42
2023-02-16T01:14:51.827Z,7.43
2023-02-16T01:15:51.888Z,7.42
2023-02-16T01:16:51.806Z,7.48
2023-02-16T01:17:51.793Z,7.48
2023-02-16T01:18:51.776Z,7.47
2023-02-16T01:19:51.773Z,7.50
2023-02-16T01:20:51.751Z,7.38
2023-02-16T01:21:51.773Z,7.35
2023-02-16T01:22:51.729Z,7.43
2023-02-16T01:23:51.768Z,7.38
2023-02-16T01:24:51.727Z,7.42
2023-02-16T01:25:51.705Z,7.35
2023-02-16T01:26:51.713Z,7.38
2023-02-16T01:27:51.680Z,7.39
2023-02-16T01:28:51.659Z,7.36
2023-02-16T01:29:51.717Z,7.35
2023-02-16T01:30:51.880Z,7.40
2023-02-16T01:31:51.698Z,7.36
2023-02-16T01:32:51.767Z,7.36
2023-02-16T01:33:51.613Z,7.38
2023-02-16T01:34:51.593Z,7.33
2023-02-16T01:35:51.602Z,7.33
2023-02-16T01:36:51.599Z,7.33
2023-02-16T01:37:51.591Z,7.29
2023-02-16T01:38:51.553Z,7.36
2023-02-16T01:39:51.544Z,7.32
2023-02-16T01:40:51.531Z,7.28
2023-02-16T01:41:51.549Z,7.28
2023-02-16T01:42:51.509Z,7.24
2023-02-16T01:43:51.492Z,7.31
2023-02-16T01:44:51.486Z,7.32
2023-02-16T01:45:51.470Z,7.28
2023-02-16T01:46:51.553Z,7.28
2023-02-16T01:47:51.470Z,7.25
2023-02-16T01:48:51.435Z,7.23
2023-02-16T01:49:51.436Z,7.17
2023-02-16T01:50:51.425Z,7.20
2023-02-16T01:51:51.417Z,7.20
2023-02-16T01:52:51.387Z,7.17
2023-02-16T01:53:51.419Z,7.23
2023-02-16T01:54:51.371Z,7.18
2023-02-16T01:55:51.377Z,7.18
2023-02-16T01:56:51.350Z,7.24
2023-02-16T01:57:51.352Z,7.15
2023-02-16T01:58:51.326Z,7.23
2023-02-16T01:59:51.328Z,7.11
2023-02-16T02:00:51.302Z,7.11
2023-02-16T02:01:51.378Z,7.11
2023-02-16T02:02:51.337Z,7.10
2023-02-16T02:03:51.285Z,7.11
2023-02-16T02:04:51.266Z,7.02
2023-02-16T02:05:51.245Z,7.06
2023-02-16T02:06:51.233Z,7.06
2023-02-16T02:07:51.232Z,7.06
2023-02-16T02:08:51.208Z,7.02
2023-02-16T02:09:51.239Z,7.02
2023-02-16T02:10:51.191Z,7.05
2023-02-16T02:11:51.228Z,6.95
2023-02-16T02:12:51.255Z,7.05
2023-02-16T02:13:51.168Z,6.97
2023-02-16T02:14:51.164Z,7.03
2023-02-16T02:15:51.155Z,7.00
2023-02-16T02:16:51.126Z,6.97
2023-02-16T02:17:51.130Z,6.99
2023-02-16T02:18:51.099Z,6.96
2023-02-16T02:19:51.086Z,7.00
2023-02-16T02:20:51.088Z,6.99
2023-02-16T02:21:51.064Z,6.99
2023-02-16T02:22:51.073Z,6.95
2023-02-16T02:23:51.066Z,6.92
2023-02-16T02:24:51.032Z,6.93
2023-02-16T02:25:51.075Z,6.95
2023-02-16T02:26:51.010Z,6.93
2023-02-16T02:27:50.999Z,6.93
2023-02-16T02:28:50.985Z,6.89
2023-02-16T02:29:50.984Z,6.95
2023-02-16T02:30:51.019Z,6.87
2023-02-16T02:31:51.134Z,6.87
2023-02-16T02:32:50.947Z,6.75
2023-02-16T02:33:50.932Z,6.89
2023-02-16T02:34:50.920Z,6.84
2023-02-16T02:35:50.914Z,6.84
2023-02-16T02:36:50.909Z,6.82
2023-02-16T02:37:50.887Z,6.84
2023-02-16T02:38:50.870Z,6.82
2023-02-16T02:39:50.875Z,6.87
2023-02-16T02:40:50.878Z,6.77
2023-02-16T02:41:50.863Z,6.77
2023-02-16T02:42:50.825Z,6.78
2023-02-16T02:43:50.816Z,6.75
2023-02-16T02:44:50.807Z,6.74
2023-02-16T02:45:50.823Z,6.72
2023-02-16T02:46:50.875Z,6.70
2023-02-16T02:47:50.779Z,6.77
2023-02-16T02:48:50.765Z,6.74
2023-02-16T02:49:50.748Z,6.64
2023-02-16T02:50:50.742Z,6.79
2023-02-16T02:51:50.731Z,6.78
2023-02-16T02:52:50.716Z,6.67
2023-02-16T02:53:50.721Z,6.63
2023-02-16T02:54:50.713Z,6.67
2023-02-16T02:55:50.702Z,6.69
2023-02-16T02:56:50.689Z,6.67
2023-02-16T02:57:50.687Z,6.72
2023-02-16T02:58:50.662Z,6.69
2023-02-16T02:59:50.649Z,6.66
2023-02-16T03:00:50.669Z,6.67
2023-02-16T03:01:50.672Z,6.67
2023-02-16T03:02:50.605Z,6.70
2023-02-16T03:03:50.599Z,6.70
2023-02-16T03:04:50.590Z,6.75
2023-02-16T03:05:50.569Z,6.66
2023-02-16T03:06:50.551Z,6.67
2023-02-16T03:07:50.572Z,6.66
2023-02-16T03:08:50.532Z,6.60
2023-02-16T03:09:50.529Z,6.60
2023-02-16T03:10:50.523Z,6.59
2023-02-16T03:11:50.507Z,6.66
2023-02-16T03:12:50.499Z,6.67
2023-02-16T03:13:50.524Z,6.64
2023-02-16T03:14:50.466Z,6.62
2023-02-16T03:15:50.467Z,6.60
2023-02-16T03:16:50.444Z,6.51
2023-02-16T03:17:50.434Z,6.67
2023-02-16T03:18:50.428Z,6.66
2023-02-16T03:19:50.425Z,6.64
2023-02-16T03:20:50.395Z,6.57
2023-02-16T03:21:50.385Z,6.60
2023-02-16T03:22:50.397Z,6.56
2023-02-16T03:23:50.368Z,6.63
2023-02-16T03:24:50.359Z,6.56
2023-02-16T03:25:50.356Z,6.62
2023-02-16T03:26:50.333Z,6.63
2023-02-16T03:27:50.320Z,6.54
2023-02-16T03:28:50.303Z,6.56
2023-02-16T03:29:50.332Z,6.56
2023-02-16T03:30:50.398Z,6.60
2023-02-16T03:31:50.337Z,6.54
2023-02-16T03:32:50.270Z,6.52
2023-02-16T03:33:50.252Z,6.54
2023-02-16T03:34:50.256Z,6.54
2023-02-16T03:35:50.249Z,6.54
2023-02-16T03:36:50.241Z,6.60
2023-02-16T03:37:50.208Z,6.56
2023-02-16T03:38:50.195Z,6.45
2023-02-16T03:39:50.179Z,6.54
2023-02-16T03:40:50.196Z,6.46
2023-02-16T03:41:50.171Z,6.48
2023-02-16T03:42:50.150Z,6.49
2023-02-16T03:43:50.148Z,6.42
2023-02-16T03:44:50.123Z,6.49
2023-02-16T03:45:50.187Z,6.41
2023-02-16T03:46:50.105Z,6.46
2023-02-16T03:47:50.093Z,6.48
2023-02-16T03:48:50.089Z,6.48
2023-02-16T03:49:50.092Z,6.44
2023-02-16T03:50:50.079Z,6.41
2023-02-16T03:51:50.044Z,6.44
2023-02-16T03:52:50.035Z,6.45
2023-02-16T03:53:50.060Z,6.41
2023-02-16T03:54:50.025Z,6.39
2023-02-16T03:55:50.025Z,6.41
2023-02-16T03:56:50.000Z,6.42
2023-02-16T03:57:50.010Z,6.46
2023-02-16T03:58:49.987Z,6.39
2023-02-16T03:59:49.964Z,6.42
2023-02-16T04:00:49.949Z,6.46
2023-02-16T04:01:50.020Z,6.38
2023-02-16T04:02:49.945Z,6.41
2023-02-16T04:03:49.953Z,6.44
2023-02-16T04:04:49.907Z,6.39
2023-02-16T04:05:49.899Z,6.36
2023-02-16T04:06:49.880Z,6.38
2023-02-16T04:07:49.872Z,6.42
2023-02-16T04:08:49.880Z,6.39
2023-02-16T04:09:49.853Z,6.42
2023-02-16T04:10:49.835Z,6.41
2023-02-16T04:11:49.827Z,6.38
2023-02-16T04:12:49.817Z,6.31
2023-02-16T04:13:49.806Z,6.35
2023-02-16T04:14:49.814Z,6.28
2023-02-16T04:15:49.784Z,6.33
2023-02-16T04:16:49.891Z,6.38
2023-02-16T04:17:49.772Z,6.28
2023-02-16T04:18:49.774Z,6.35
2023-02-16T04:19:49.743Z,6.19
2023-02-16T04:20:49.724Z,6.38
2023-02-16T04:21:49.719Z,6.35
2023-02-16T04:22:49.719Z,6.27
2023-02-16T04:23:49.700Z,6.24
2023-02-16T04:24:49.692Z,6.26
2023-02-16T04:25:49.664Z,6.30
2023-02-16T04:26:49.682Z,6.27
2023-02-16T04:27:49.687Z,6.35
2023-02-16T04:28:49.638Z,6.31
2023-02-16T04:29:49.642Z,6.28
2023-02-16T04:30:49.728Z,6.30
2023-02-16T04:31:49.743Z,6.35
2023-02-16T04:32:49.590Z,6.30
2023-02-16T04:33:49.617Z,6.38
2023-02-16T04:34:49.562Z,6.31
2023-02-16T04:35:49.555Z,6.26
2023-02-16T04:36:49.557Z,6.28
2023-02-16T04:37:49.535Z,6.30
2023-02-16T04:38:49.533Z,6.26
2023-02-16T04:39:49.510Z,6.30
2023-02-16T04:40:49.514Z,6.27
2023-02-16T04:41:49.492Z,6.30
2023-02-16T04:42:49.498Z,6.27
2023-02-16T04:43:49.476Z,6.26
2023-02-16T04:44:49.452Z,6.19
2023-02-16T04:45:49.553Z,6.22
2023-02-16T04:46:49.435Z,6.24
2023-02-16T04:47:49.421Z,6.14
2023-02-16T04:48:49.419Z,6.26
2023-02-16T04:49:50.373Z,6.20
2023-02-16T04:50:49.398Z,6.31
2023-02-16T04:51:49.400Z,6.26
2023-02-16T04:52:49.360Z,6.17
2023-02-16T04:53:49.348Z,6.19
2023-02-16T04:54:49.342Z,6.28
2023-02-16T04:55:49.326Z,6.22
2023-02-16T04:56:49.322Z,6.31
2023-02-16T04:57:49.312Z,6.19
2023-02-16T04:58:49.314Z,6.24
2023-02-16T04:59:49.294Z,6.28
2023-02-16T05:00:49.273Z,6.33
2023-02-16T05:01:49.334Z,6.30
2023-02-16T05:02:49.252Z,6.33
2023-02-16T05:03:49.237Z,6.33
2023-02-16T05:04:49.315Z,6.30
2023-02-16T05:05:49.237Z,6.35
2023-02-16T05:06:49.224Z,6.35
2023-02-16T05:07:49.198Z,6.17
2023-02-16T05:08:49.185Z,6.28
2023-02-16T05:09:49.193Z,6.26
2023-02-16T05:10:49.169Z,6.26
2023-02-16T05:11:49.147Z,6.27
2023-02-16T05:12:49.148Z,6.20
2023-02-16T05:13:49.123Z,6.22
2023-02-16T05:14:49.132Z,6.20
2023-02-16T05:15:49.161Z,6.14
2023-02-16T05:16:49.104Z,6.27
2023-02-16T05:17:49.081Z,6.16
2023-02-16T05:18:49.077Z,6.19
2023-02-16T05:19:49.075Z,6.19
2023-02-16T05:20:49.053Z,6.27
2023-02-16T05:21:49.069Z,6.17
2023-02-16T05:22:49.030Z,6.20
2023-02-16T05:23:49.014Z,6.08
2023-02-16T05:24:49.017Z,6.14
2023-02-16T05:25:48.986Z,6.09
2023-02-16T05:26:48.977Z,6.08
2023-02-16T05:27:49.007Z,6.20
2023-02-16T05:28:48.960Z,6.09
2023-02-16T05:29:48.947Z,6.17
2023-02-16T05:30:49.040Z,6.27
2023-02-16T05:31:49.018Z,6.19
2023-02-16T05:32:48.917Z,6.17
2023-02-16T05:33:48.901Z,6.17
2023-02-16T05:34:48.902Z,6.24
2023-02-16T05:35:48.884Z,6.20
2023-02-16T05:36:48.870Z,6.16
2023-02-16T05:37:48.893Z,6.11
2023-02-16T05:38:48.867Z,6.16
2023-02-16T05:39:48.840Z,6.16
2023-02-16T05:40:48.864Z,6.17
2023-02-16T05:41:48.811Z,6.14
2023-02-16T05:42:48.808Z,6.22
2023-02-16T05:43:48.810Z,6.24
2023-02-16T05:44:48.787Z,6.17
2023-02-16T05:45:48.770Z,6.24
2023-02-16T05:46:48.775Z,6.24
2023-02-16T05:47:48.746Z,6.35
2023-02-16T05:48:48.744Z,6.33
2023-02-16T05:49:48.727Z,6.30
2023-02-16T05:50:48.730Z,6.38
2023-02-16T05:51:48.718Z,6.35
2023-02-16T05:52:48.694Z,6.30
2023-02-16T05:53:48.791Z,6.27
2023-02-16T05:54:48.677Z,6.26
2023-02-16T05:55:48.800Z,6.30
2023-02-16T05:56:48.673Z,6.33
2023-02-16T05:57:48.651Z,6.31
2023-02-16T05:58:48.630Z,6.42
2023-02-16T05:59:48.624Z,6.45
2023-02-16T06:00:48.610Z,6.39
2023-02-16T06:01:51.612Z,6.44
2023-02-16T06:02:55.757Z,6.41
2023-02-16T06:03:48.587Z,6.39
2023-02-16T06:04:48.568Z,6.46
2023-02-16T06:05:48.549Z,6.41
2023-02-16T06:06:48.657Z,6.41
2023-02-16T06:07:48.565Z,6.42
2023-02-16T06:08:48.534Z,6.49
2023-02-16T06:09:48.530Z,6.44
2023-02-16T06:10:48.504Z,6.49
2023-02-16T06:11:48.503Z,6.56
2023-02-16T06:12:48.485Z,6.45
2023-02-16T06:13:48.463Z,6.49
2023-02-16T06:14:48.468Z,6.57
2023-02-16T06:15:48.506Z,6.59
2023-02-16T06:16:48.444Z,6.57
2023-02-16T06:17:48.420Z,6.48
2023-02-16T06:18:48.413Z,6.57
2023-02-16T06:19:48.395Z,6.59
2023-02-16T06:20:48.411Z,6.56
2023-02-16T06:21:48.396Z,6.60
2023-02-16T06:22:48.372Z,6.57
2023-02-16T06:23:48.351Z,6.54
2023-02-16T06:24:48.349Z,6.52
2023-02-16T06:25:48.368Z,6.56
2023-02-16T06:26:48.340Z,6.52
2023-02-16T06:27:48.317Z,6.52
2023-02-16T06:28:48.309Z,6.64
2023-02-16T06:29:48.294Z,6.54
2023-02-16T06:30:48.278Z,6.60
2023-02-16T06:31:48.367Z,6.56
2023-02-16T06:32:48.266Z,6.51
2023-02-16T06:33:48.269Z,6.51
2023-02-16T06:34:48.228Z,6.54
2023-02-16T06:35:48.215Z,6.54
2023-02-16T06:36:48.216Z,6.64
2023-02-16T06:37:48.198Z,6.56
2023-02-16T06:38:48.199Z,6.57
2023-02-16T06:39:48.178Z,6.48
2023-02-16T06:40:48.165Z,6.54
2023-02-16T06:41:48.202Z,6.52
2023-02-16T06:42:48.203Z,6.60
2023-02-16T06:43:48.126Z,6.60
2023-02-16T06:44:48.130Z,6.63
2023-02-16T06:45:48.110Z,6.54
2023-02-16T06:46:48.184Z,6.56
2023-02-16T06:47:48.101Z,6.59
2023-02-16T06:48:48.073Z,6.54
2023-02-16T06:49:48.061Z,6.63
2023-02-16T06:50:48.069Z,6.62
2023-02-16T06:51:48.050Z,6.67
2023-02-16T06:52:48.041Z,6.63
2023-02-16T06:53:48.016Z,6.67
2023-02-16T06:54:48.007Z,6.69
2023-02-16T06:55:47.999Z,6.66
2023-02-16T06:56:47.990Z,6.67
2023-02-16T06:57:48.028Z,6.69
2023-02-16T06:58:47.971Z,6.77
2023-02-16T06:59:47.952Z,6.75
2023-02-16T07:00:48.010Z,6.66
2023-02-16T07:01:47.936Z,6.70
2023-02-16T07:02:47.916Z,6.66
2023-02-16T07:03:50.848Z,6.74
2023-02-16T07:04:47.893Z,6.69
2023-02-16T07:05:47.891Z,6.70
2023-02-16T07:06:47.874Z,6.70
2023-02-16T07:07:47.872Z,6.82
2023-02-16T07:08:47.856Z,6.70
2023-02-16T07:09:47.855Z,6.75
2023-02-16T07:10:50.393Z,6.75
2023-02-16T07:11:47.810Z,6.82
2023-02-16T07:12:47.801Z,6.75
2023-02-16T07:13:47.823Z,6.69
2023-02-16T07:14:47.788Z,6.74
2023-02-16T07:15:47.773Z,6.77
2023-02-16T07:16:47.772Z,6.70
2023-02-16T07:17:47.742Z,6.79
2023-02-16T07:18:47.747Z,6.79
2023-02-16T07:19:47.719Z,6.84
2023-02-16T07:20:47.717Z,6.85
2023-02-16T07:21:47.718Z,6.75
2023-02-16T07:22:47.698Z,6.82
2023-02-16T07:23:47.676Z,6.77
2023-02-16T07:24:47.677Z,6.84
2023-02-16T07:25:47.656Z,6.82
2023-02-16T07:26:47.646Z,6.78
2023-02-16T07:27:47.646Z,6.82
2023-02-16T07:28:47.628Z,6.85
2023-02-16T07:29:47.635Z,6.87
2023-02-16T07:30:47.597Z,6.87
2023-02-16T07:31:47.891Z,6.84
2023-02-16T07:32:47.578Z,6.93
2023-02-16T07:33:47.595Z,6.95
2023-02-16T07:34:47.560Z,7.00
2023-02-16T07:35:47.546Z,7.00
2023-02-16T07:36:47.539Z,7.10
2023-02-16T07:37:47.574Z,7.02
2023-02-16T07:38:47.517Z,7.05
2023-02-16T07:39:47.510Z,7.02
2023-02-16T07:40:47.489Z,7.11
2023-02-16T07:41:47.474Z,7.03
2023-02-16T07:42:47.465Z,7.02
2023-02-16T07:43:47.455Z,7.02
2023-02-16T07:44:47.439Z,7.15
2023-02-16T07:45:47.598Z,7.11
2023-02-16T07:46:47.432Z,7.18
2023-02-16T07:47:47.565Z,7.14
2023-02-16T07:48:47.414Z,7.17
2023-02-16T07:49:47.389Z,7.21
2023-02-16T07:50:47.369Z,7.17
2023-02-16T07:51:47.377Z,7.17
2023-02-16T07:52:47.356Z,7.20
2023-02-16T07:53:47.338Z,7.13
2023-02-16T07:54:47.343Z,7.17
2023-02-16T07:55:47.328Z,7.11
2023-02-16T07:56:47.304Z,7.10
2023-02-16T07:57:47.300Z,7.17
2023-02-16T07:58:47.301Z,7.10
2023-02-16T07:59:47.270Z,7.13
2023-02-16T08:00:47.265Z,7.11
2023-02-16T08:01:47.294Z,7.13
2023-02-16T08:02:47.413Z,6.99
2023-02-16T08:03:47.228Z,7.10
2023-02-16T08:04:47.231Z,7.14
2023-02-16T08:05:47.216Z,7.11
2023-02-16T08:06:47.199Z,7.17
2023-02-16T08:07:47.178Z,7.13
2023-02-16T08:08:47.179Z,7.14
2023-02-16T08:09:47.159Z,7.18
2023-02-16T08:10:47.171Z,7.25
2023-02-16T08:11:47.157Z,7.23
2023-02-16T08:12:47.122Z,7.18
2023-02-16T08:13:47.111Z,7.20
2023-02-16T08:14:47.109Z,7.15
2023-02-16T08:15:47.107Z,7.15
2023-02-16T08:16:47.118Z,7.24
2023-02-16T08:17:47.215Z,7.18
2023-02-16T08:18:47.199Z,7.24
2023-02-16T08:19:47.055Z,7.20
2023-02-16T08:21:02.681Z,7.17
2023-02-16T08:21:48.029Z,7.21
2023-02-16T08:22:47.029Z,7.23
2023-02-16T08:23:47.029Z,7.25
2023-02-16T08:24:47.004Z,7.29
2023-02-16T08:25:46.982Z,7.28
2023-02-16T08:26:46.968Z,7.28
2023-02-16T08:27:46.962Z,7.28
2023-02-16T08:28:46.999Z,7.32
2023-02-16T08:29:46.950Z,7.33
2023-02-16T08:30:46.924Z,7.31
2023-02-16T08:31:47.064Z,7.31
2023-02-16T08:32:46.907Z,7.33
2023-02-16T08:33:46.915Z,7.35
2023-02-16T08:34:46.903Z,7.23
2023-02-16T08:35:46.872Z,7.32
2023-02-16T08:36:46.856Z,7.32
2023-02-16T08:37:46.856Z,7.32
2023-02-16T08:38:46.843Z,7.32
2023-02-16T08:39:46.839Z,7.32
2023-02-16T08:40:46.815Z,7.36
2023-02-16T08:41:46.806Z,7.38
2023-02-16T08:42:46.803Z,7.33
2023-02-16T08:43:46.809Z,7.28
2023-02-16T08:44:46.794Z,7.33
2023-02-16T08:45:46.775Z,7.28
2023-02-16T08:46:47.329Z,7.32
2023-02-16T08:47:46.734Z,7.35
2023-02-16T08:48:46.739Z,7.33
2023-02-16T08:49:46.738Z,7.33
2023-02-16T08:50:46.697Z,7.38
2023-02-16T08:51:46.699Z,7.33
2023-02-16T08:52:46.672Z,7.35
2023-02-16T08:53:46.736Z,7.38
2023-02-16T08:54:46.672Z,7.38
2023-02-16T08:55:46.647Z,7.43
2023-02-16T08:56:46.636Z,7.45
2023-02-16T08:57:46.618Z,7.50
2023-02-16T08:58:46.610Z,7.48
2023-02-16T08:59:46.605Z,7.50
2023-02-16T09:00:46.588Z,7.48
2023-02-16T09:01:46.588Z,7.53
2023-02-16T09:02:46.604Z,7.48
2023-02-16T09:03:46.552Z,7.60
2023-02-16T09:04:48.732Z,7.61
2023-02-16T09:05:46.553Z,7.56
2023-02-16T09:06:46.525Z,7.54
2023-02-16T09:07:46.505Z,7.56
2023-02-16T09:08:46.564Z,7.69
2023-02-16T09:09:46.495Z,7.69
2023-02-16T09:10:46.488Z,7.66
2023-02-16T09:11:46.465Z,7.63
2023-02-16T09:12:46.451Z,7.76
2023-02-16T09:13:46.430Z,7.80
2023-02-16T09:14:46.421Z,7.80
2023-02-16T09:15:46.415Z,7.80
2023-02-16T09:16:46.598Z,7.82
2023-02-16T09:17:46.392Z,7.83
2023-02-16T09:18:46.383Z,7.82
2023-02-16T09:19:46.371Z,7.83
2023-02-16T09:20:47.075Z,7.93
2023-02-16T09:21:46.377Z,7.95
2023-02-16T09:22:46.343Z,7.94
2023-02-16T09:23:46.325Z,8.00
2023-02-16T09:24:46.325Z,8.08
2023-02-16T09:25:46.302Z,8.08
2023-02-16T09:26:46.300Z,8.06
2023-02-16T09:27:46.308Z,8.03
2023-02-16T09:28:46.264Z,8.06
2023-02-16T09:29:46.266Z,8.18
2023-02-16T09:30:46.256Z,8.08
2023-02-16T09:31:46.273Z,8.10
2023-02-16T09:32:46.228Z,8.05
2023-02-16T09:33:46.214Z,8.18
2023-02-16T09:34:46.195Z,8.06
2023-02-16T09:35:46.186Z,8.19
2023-02-16T09:36:46.169Z,8.19
2023-02-16T09:37:46.206Z,8.23
2023-02-16T09:38:46.154Z,8.23
2023-02-16T09:39:46.141Z,8.20
2023-02-16T09:40:46.120Z,8.23
2023-02-16T09:41:46.118Z,8.19
2023-02-16T09:42:46.103Z,8.27
2023-02-16T09:43:46.122Z,8.37
2023-02-16T09:44:46.081Z,8.33
2023-02-16T09:45:46.155Z,8.33
2023-02-16T09:46:46.056Z,8.41
2023-02-16T09:47:46.049Z,8.38
2023-02-16T09:48:46.041Z,8.37
2023-02-16T09:49:46.058Z,8.37
2023-02-16T09:50:53.898Z,8.36
2023-02-16T09:51:46.999Z,8.36
2023-02-16T09:52:45.995Z,8.31
2023-02-16T09:53:46.003Z,8.38
2023-02-16T09:54:45.963Z,8.34
2023-02-16T09:55:45.983Z,8.44
2023-02-16T09:56:45.942Z,8.34
2023-02-16T09:57:45.935Z,8.31
2023-02-16T09:58:45.918Z,8.31
2023-02-16T09:59:45.911Z,8.30
2023-02-16T10:00:45.904Z,8.33
2023-02-16T10:01:45.897Z,8.24
2023-02-16T10:02:45.975Z,8.31
2023-02-16T10:03:45.865Z,8.28
2023-02-16T10:04:46.304Z,8.30
2023-02-16T10:05:45.869Z,8.24
2023-02-16T10:06:45.831Z,8.23
2023-02-16T10:07:45.820Z,8.26
2023-02-16T10:08:45.820Z,8.26
2023-02-16T10:09:45.824Z,8.28
2023-02-16T10:10:45.785Z,8.24
2023-02-16T10:11:45.785Z,8.28
2023-02-16T10:12:45.761Z,8.33
2023-02-16T10:13:45.749Z,8.27
2023-02-16T10:14:45.736Z,8.31
2023-02-16T10:15:45.871Z,8.28
2023-02-16T10:16:45.718Z,8.37
2023-02-16T10:17:45.705Z,8.42
2023-02-16T10:18:45.709Z,8.27
2023-02-16T10:19:45.687Z,8.36
2023-02-16T10:20:45.666Z,8.45
2023-02-16T10:21:45.673Z,8.46
2023-02-16T10:22:45.663Z,8.38
2023-02-16T10:23:45.637Z,8.34
2023-02-16T10:24:45.638Z,8.37
2023-02-16T10:25:45.651Z,8.42
2023-02-16T10:26:45.606Z,8.42
2023-02-16T10:27:45.611Z,8.44
2023-02-16T10:28:45.600Z,8.44
2023-02-16T10:29:45.595Z,8.45
2023-02-16T10:30:45.628Z,8.46
2023-02-16T10:31:45.650Z,8.48
2023-02-16T10:32:45.537Z,8.55
2023-02-16T10:33:45.546Z,8.53
2023-02-16T10:34:45.531Z,8.55
2023-02-16T10:35:45.517Z,8.61
2023-02-16T10:36:45.496Z,8.56
2023-02-16T10:37:45.482Z,8.60
2023-02-16T10:38:45.466Z,8.63
2023-02-16T10:39:45.488Z,8.55
2023-02-16T10:40:45.463Z,8.55
2023-02-16T10:41:45.462Z,8.48
2023-02-16T10:42:45.430Z,8.53
2023-02-16T10:43:45.419Z,8.48
2023-02-16T10:44:45.410Z,8.51
2023-02-16T10:45:49.564Z,8.56
2023-02-16T10:46:45.451Z,8.55
2023-02-16T10:47:45.385Z,8.53
2023-02-16T10:48:45.358Z,8.55
2023-02-16T10:49:45.356Z,8.61
2023-02-16T10:50:45.346Z,8.60
2023-02-16T10:51:45.340Z,8.52
2023-02-16T10:52:45.318Z,8.53
2023-02-16T10:53:45.308Z,8.61
2023-02-16T10:54:45.293Z,8.58
2023-02-16T10:55:45.304Z,8.63
2023-02-16T10:56:45.273Z,8.58
2023-02-16T10:57:45.342Z,8.61
2023-02-16T10:58:45.244Z,8.60
2023-02-16T10:59:45.243Z,8.52
2023-02-16T11:00:45.224Z,8.66
2023-02-16T11:01:45.258Z,8.58
2023-02-16T11:02:45.198Z,8.67
2023-02-16T11:03:45.194Z,8.66
2023-02-16T11:04:45.265Z,8.67
2023-02-16T11:05:45.179Z,8.66
2023-02-16T11:06:45.153Z,8.64
2023-02-16T11:07:45.155Z,8.67
2023-02-16T11:08:45.133Z,8.69
2023-02-16T11:09:45.129Z,8.67
2023-02-16T11:10:45.120Z,8.74
2023-02-16T11:11:45.102Z,8.67
2023-02-16T11:12:45.094Z,8.67
2023-02-16T11:13:45.228Z,8.66
2023-02-16T11:14:45.064Z,8.66
2023-02-16T11:15:45.081Z,8.53
2023-02-16T11:16:45.048Z,8.56
2023-02-16T11:17:45.042Z,8.51
2023-02-16T11:18:45.019Z,8.55
2023-02-16T11:19:45.022Z,8.55
2023-02-16T11:20:45.031Z,8.67
2023-02-16T11:21:45.012Z,8.64
2023-02-16T11:22:44.969Z,8.67
2023-02-16T11:23:44.985Z,8.71
2023-02-16T11:24:44.968Z,8.64
2023-02-16T11:25:44.947Z,8.64
2023-02-16T11:26:44.937Z,8.64
2023-02-16T11:27:44.921Z,8.61
2023-02-16T11:28:44.913Z,8.67
2023-02-16T11:29:44.921Z,8.69
2023-02-16T11:30:44.940Z,8.67
2023-02-16T11:31:45.001Z,8.74
2023-02-16T11:32:44.912Z,8.79
2023-02-16T11:33:44.875Z,8.73
2023-02-16T11:34:44.834Z,8.82
2023-02-16T11:35:44.826Z,8.82
2023-02-16T11:36:44.835Z,8.81
2023-02-16T11:37:44.816Z,8.78
2023-02-16T11:38:44.799Z,8.79
2023-02-16T11:39:44.807Z,8.78
2023-02-16T11:40:44.771Z,8.84
2023-02-16T11:41:44.757Z,8.82
2023-02-16T11:42:44.741Z,8.79
2023-02-16T11:43:44.732Z,8.76
2023-02-16T11:44:44.735Z,8.82
2023-02-16T11:45:44.749Z,8.84
2023-02-16T11:46:44.797Z,8.78
2023-02-16T11:47:44.681Z,8.71
2023-02-16T11:48:44.673Z,8.76
2023-02-16T11:49:44.668Z,8.79
2023-02-16T11:50:44.660Z,8.84
2023-02-16T11:51:44.636Z,8.74
2023-02-16T11:52:44.624Z,8.74
2023-02-16T11:53:44.623Z,8.81
2023-02-16T11:54:44.597Z,8.78
2023-02-16T11:55:44.604Z,8.79
2023-02-16T11:56:44.584Z,8.79
2023-02-16T11:57:44.568Z,8.78
2023-02-16T11:58:44.561Z,8.79
2023-02-16T11:59:44.543Z,8.74
2023-02-16T12:00:44.529Z,8.85
2023-02-16T12:01:44.553Z,8.81
2023-02-16T12:02:44.512Z,8.76
2023-02-16T12:03:51.672Z,8.74
2023-02-16T12:04:44.492Z,8.73
2023-02-16T12:05:44.472Z,8.81
2023-02-16T12:06:44.488Z,8.88
2023-02-16T12:07:44.454Z,8.92
2023-02-16T12:08:44.464Z,8.87
2023-02-16T12:09:44.451Z,8.94
2023-02-16T12:10:44.431Z,8.95
2023-02-16T12:11:44.415Z,9.08
2023-02-16T12:12:44.412Z,9.04
2023-02-16T12:13:44.390Z,9.08
2023-02-16T12:14:44.380Z,9.08
2023-02-16T12:15:44.370Z,9.03
2023-02-16T12:16:44.374Z,9.03
2023-02-16T12:17:44.355Z,9.11
2023-02-16T12:18:44.329Z,9.03
2023-02-16T12:19:44.322Z,9.06
2023-02-16T12:20:44.380Z,9.08
2023-02-16T12:21:44.288Z,8.99
2023-02-16T12:22:44.291Z,8.91
2023-02-16T12:23:44.263Z,8.88
2023-02-16T12:24:44.261Z,8.99
2023-02-16T12:25:44.253Z,8.95
2023-02-16T12:26:44.256Z,9.00
2023-02-16T12:27:44.225Z,8.94
2023-02-16T12:28:44.227Z,8.85
2023-02-16T12:29:44.210Z,8.82
2023-02-16T12:30:44.228Z,8.82
2023-02-16T12:31:44.290Z,8.91
2023-02-16T12:32:44.186Z,8.79
2023-02-16T12:33:44.178Z,8.81
2023-02-16T12:34:44.152Z,8.81
2023-02-16T12:35:44.143Z,8.76
2023-02-16T12:36:44.151Z,8.76
2023-02-16T12:37:44.112Z,8.74
2023-02-16T12:38:44.103Z,8.67
2023-02-16T12:39:44.097Z,8.70
2023-02-16T12:40:44.076Z,8.67
2023-02-16T12:41:44.100Z,8.64
2023-02-16T12:42:44.065Z,8.67
2023-02-16T12:43:44.040Z,8.64
2023-02-16T12:44:44.030Z,8.69
2023-02-16T12:45:44.076Z,8.55
2023-02-16T12:46:44.010Z,8.74
2023-02-16T12:47:43.988Z,8.67
2023-02-16T12:48:43.994Z,8.64
2023-02-16T12:49:43.998Z,8.66
2023-02-16T12:50:43.975Z,8.61
2023-02-16T12:51:43.942Z,8.69
2023-02-16T12:52:43.944Z,8.66
2023-02-16T12:53:43.918Z,8.61
2023-02-16T12:54:43.909Z,8.61
2023-02-16T12:55:43.911Z,8.55
2023-02-16T12:56:43.901Z,8.55
2023-02-16T12:57:43.876Z,8.58
2023-02-16T12:58:43.876Z,8.46
2023-02-16T12:59:43.848Z,8.48
2023-02-16T13:00:44.456Z,8.44
2023-02-16T13:01:45.054Z,8.42
2023-02-16T13:02:43.882Z,8.42
2023-02-16T13:03:43.862Z,8.41
2023-02-16T13:04:43.834Z,8.38
2023-02-16T13:05:43.806Z,8.33
2023-02-16T13:06:43.785Z,8.45
2023-02-16T13:07:43.770Z,8.44
2023-02-16T13:08:43.755Z,8.42
2023-02-16T13:09:43.819Z,8.34
2023-02-16T13:10:43.821Z,8.31
2023-02-16T13:11:43.771Z,8.41
2023-02-16T13:12:43.940Z,8.41
2023-02-16T13:13:43.700Z,8.42
2023-02-16T13:14:43.695Z,8.44
2023-02-16T13:15:43.726Z,8.46
2023-02-16T13:16:43.744Z,8.44
2023-02-16T13:17:43.743Z,8.41
2023-02-16T13:18:43.910Z,8.45